Terminal Aerodrome Forecast
Issued by NWS Goodland, KS

Home | Current Version | Previous Version | Text Only | Print | Product List | Glossary On
Versions: 1 2 3 4 5 6 7 8 9 10 11 12 13 14 15 16 17 18 19 20 21 22 23
000
FTUS43 KGLD 200539
TAFGLD
TAF
KGLD 200539Z 2006/2106 13015G25KT P6SM SCT200
     FM200800 15015G27KT P6SM SCT030 BKN200
     FM201300 15020G31KT P6SM VCSH SCT020 BKN150
     FM201500 15022G33KT P6SM -SHRA BKN020
     FM201600 15022G32KT P6SM -SHRA BKN015
     FM201700 13020KT 6SM -SHRA BKN008=

USA.gov is the U.S. government's official web portal to all federal, state and local government web resources and services.